LIBN/LCC METAR and TAF weather

Enter ICAO airport designator
Station Type Date Time Source
LIBN METAR 2019/10/15 17:55 UTC NOAA

LIBN 151755Z 19002KT CAVOK 21/19 Q1017 RMK SKC VIS MIN 9999 WIND THR14 20004KT WIND THR32 20003KT BLU


Station Type Date Time Source
LIBN Decoded METAR 2019/10/15 17:55 UTC NOAA

Lecce, Italy (LIBN) 40-14N 018-09E 61M
Oct 15, 2019 - 01:55 PM EDT / 2019.10.15 1755 UTC
Wind: from the S (190 degrees) at 2 MPH (2 KT):0
Visibility: greater than 7 mile(s):0
Temperature: 69 F (21 C)
Dew Point: 66 F (19 C)
Relative Humidity: 88%
Pressure (altimeter): 30.03 in. Hg (1017 hPa)
ob: LIBN 151755Z 19002KT CAVOK 21/19 Q1017 RMK SKC VIS MIN 9999 WIND THR14 20004KT WIND THR32 20003KT BLU
cycle: 18

Station Type Date Time Source
LIBN TAF 2019/09/11 12:30 UTC NOAA

TAF TAF LIBN 111100Z 1112/1124 09010KT 9999 SCT025
TEMPO 1112/1115 6000 RA FEW020CB SCT025

Example: see airport list